La Criolla, Argentina
Current Conditions -  °F | °C
As of 9:00 PM on Monday 24 Nov 2014 (Local Time) from SUSO Reporting Station
Thunderstorm Thunderstorm  
Wind Chill: 64°   Ceiling: 1300
Heat Index: 64°   Visibility: 4mi
Dew Point: 64°   Wind: 12mph
Humidity: 100%   Direction: 120°ESE
Pressure: 29.77"   Gusts: NA
Location:  30.23°S, 60.37°W
Report Text: SUSO 250000Z 12010KT 7000 TSRA BKN013 FEW033CB OVC060 18/18 Q1008
Loading
Personal Weather Stations






























Interactive Weather Map New forecast layout! Learn more

10-Day Weather Forecast

Advertisements
Track Severe Weather on mobile